createdAt,value
2022-11-06T00:04:16.967Z,100.00
2022-11-06T00:19:20.288Z,100.00
2022-11-06T00:34:23.464Z,100.00
2022-11-06T00:49:29.050Z,100.00
2022-11-06T01:04:32.395Z,100.00
2022-11-06T01:19:35.918Z,100.00
2022-11-06T01:34:39.442Z,100.00
2022-11-06T01:49:43.043Z,100.00
2022-11-06T02:04:49.166Z,100.00
2022-11-06T02:20:01.639Z,100.00
2022-11-06T02:35:30.379Z,100.00
2022-11-06T02:50:39.769Z,100.00
2022-11-06T03:06:04.934Z,100.00
2022-11-06T03:21:11.355Z,100.00
2022-11-06T03:36:23.286Z,100.00
2022-11-06T03:51:39.292Z,100.00
2022-11-06T04:07:11.292Z,100.00
2022-11-06T04:22:26.778Z,100.00
2022-11-06T04:37:57.622Z,100.00
2022-11-06T04:53:03.303Z,100.00
2022-11-06T05:08:07.326Z,100.00
2022-11-06T05:23:10.495Z,100.00
2022-11-06T05:38:13.877Z,100.00
2022-11-06T05:53:17.746Z,100.00
2022-11-06T06:08:21.083Z,100.00
2022-11-06T06:23:24.139Z,100.00
2022-11-06T06:38:27.299Z,100.00
2022-11-06T06:53:31.650Z,100.00
2022-11-06T07:08:35.070Z,100.00
2022-11-06T07:23:38.782Z,100.00
2022-11-06T07:38:44.078Z,100.00
2022-11-06T07:53:48.021Z,100.00
2022-11-06T08:08:56.135Z,100.00
2022-11-06T08:24:01.855Z,100.00
2022-11-06T08:39:05.202Z,100.00
2022-11-06T08:54:12.325Z,100.00
2022-11-06T09:09:16.048Z,100.00
2022-11-06T09:24:27.555Z,100.00
2022-11-06T09:39:42.881Z,100.00
2022-11-06T09:55:01.994Z,100.00
2022-11-06T10:10:12.025Z,100.00
2022-11-06T10:25:30.242Z,100.00
2022-11-06T10:40:33.667Z,99.27
2022-11-06T10:55:57.650Z,97.14
2022-11-06T11:11:07.038Z,90.80
2022-11-06T11:26:30.278Z,85.27
2022-11-06T11:41:33.649Z,83.02
2022-11-06T12:15:46.270Z,72.91
2022-11-06T12:31:01.580Z,71.49
2022-11-06T12:46:23.699Z,68.46
2022-11-06T13:01:59.556Z,65.38
2022-11-06T13:17:21.389Z,56.30
2022-11-06T13:32:26.469Z,51.01
2022-11-06T13:47:41.980Z,50.11
2022-11-06T14:03:04.052Z,50.04
2022-11-06T14:18:13.667Z,53.92
2022-11-06T14:33:40.685Z,59.71
2022-11-06T14:48:48.701Z,62.11
2022-11-06T15:03:55.482Z,63.86
2022-11-06T15:19:03.425Z,67.27
2022-11-06T15:34:23.432Z,70.74
2022-11-06T15:49:26.951Z,73.66
2022-11-06T16:04:32.657Z,75.52
2022-11-06T16:19:39.887Z,78.00
2022-11-06T16:34:46.108Z,79.13
2022-11-06T16:49:54.813Z,81.30
2022-11-06T17:05:17.175Z,83.09
2022-11-06T17:20:20.627Z,84.59
2022-11-06T17:35:23.934Z,86.11
2022-11-06T17:50:28.048Z,87.61
2022-11-06T18:05:31.786Z,90.43
2022-11-06T18:20:35.210Z,91.76
2022-11-06T18:35:38.367Z,94.41
2022-11-06T18:50:41.622Z,95.68
2022-11-06T19:05:47.774Z,97.09
2022-11-06T19:20:51.136Z,97.64
2022-11-06T19:35:54.904Z,99.36
2022-11-06T19:51:00.028Z,99.51
2022-11-06T20:06:07.800Z,99.72
2022-11-06T20:21:12.706Z,99.44
2022-11-06T20:36:25.562Z,99.18
2022-11-06T20:51:31.866Z,99.39
2022-11-06T21:06:39.160Z,99.96
2022-11-06T21:21:42.365Z,100.00
2022-11-06T21:36:46.554Z,100.00
2022-11-06T21:51:50.714Z,100.00
2022-11-06T22:06:54.226Z,100.00
2022-11-06T22:21:57.526Z,100.00
2022-11-06T22:37:00.900Z,100.00
2022-11-06T22:52:04.168Z,100.00
2022-11-06T23:07:07.302Z,100.00
2022-11-06T23:22:29.585Z,100.00
2022-11-06T23:37:33.187Z,100.00
2022-11-06T23:52:36.293Z,100.00
